Little's Farm

CA-0442 · 安大略, 加拿大

罗盘
风向 的 风向 160°
风: 6 kt, 2 beaufort

添加一条跑道以查看侧风和逆风信息。

添置 跑道
0 2.000 4.000 6.000 8.000 10.000
OVC 7.800 ft
SPECI CYYZ 022300Z 16006KT 15SM OVC078 05/02 A3003 RMK AC8 SLP177

METAR Little's Farm - CA-0442

Little's Farm是,加拿大中的小机场。 该领域的国际民航组织标志是CA-0442.

这份报告是针对2022年12月2日 18:00, 当地时间在多倫多皮爾遜國際機場进行的。

机场观察

风向为160°,速度为6 kt。

可见度为15 mi。

有乌云密布在7.800 ft的高度。 破损或更高的上限为7.800 ft。

温度为5 °C,阵风为1 °C。 露点为2 °C,相对湿度为81%。 海平面上的气压为30,03 inHg (QNH)。

白天

今天,太阳从07:34升起,在16:42降落。 这适用于Little's Farm,世界夏令时可能有所不同。 当地时间与世界标准时间之间的时差为-5 小时。 当前,没有夏令时有效。

公司介绍

我们没有关于这个机场的公司信息。

体会

到Vliegles.nl去找飞行课程,跳伞和其他飞行体验。 浏览页面,了解Little's Farm附近所有可用的活动。 你也可以使用搜索功能来寻找你所在地附近的特定飞行课程、跳伞或其他飞行体验。

乌云

7.800 ft OVC 乌云密布

温度 & 天气

温度 5 °C
露点 2 °C
相对湿度 81%
风寒 1 °C
Kp-index 2 (0-9)

评论

SLP177海平面压力为30,05 inHg (30,05 inHg)
AC8

白天

日出
07:33 (13:06)
中午
12:07
日落
16:42

小工具

你想在你的网站上有一个关于Little's Farm的当前航空天气(METAR)的小部件吗?

显示HTML代码

我们和第三方通过cookies跟踪您在我们网站上的互联网行为。如果你继续,我们认为你同意我们的饼干政策